Tiempo atmosférico en la estación meteorológica de Binissalem, Illes Balears (105 m.)



Fecha
DESCASC
Temp. máxima en grados centígrados (hora)
DESCASC
Temp. mínima en grados centígrados (hora)
DESCASC
Temp. media en grados centígrados
DESCASC
Racha de viento máxima en m/sg (hora)
DESCASC
Velocidad máxima media en intervalos de 10 minutos(hora)
DESCASC
Precipitaciones diarias en mm
DESCASC
Precipitaciones de 00:00 a 06:00 en mm
DESCASC
Precipitaciones de 06:00 a 12:00 en mm
DESCASC
Precipitaciones de 12:00 a 18:00 en mm
DESCASC
Precipitaciones de 18:00 a 24:00 en mm
DESCASC
14-12-2019 21 (12:30) 9.8 (23:20) 15.4 13.06 (04:10) 8.06 (01:10) 0 0 0 0 0
13-12-2019 19.8 (16:20) 12.4 (00:30) 16.1 20.83 (19:20) 9.17 (12:00) 0 0 0 0 0
12-12-2019 15.2 (13:50) 10.1 (00:20) 12.7 13.06 (04:00) 7.22 (07:40) 0 0 0 0 0
11-12-2019 16.4 (15:40) 1.1 (00:00) 8.7 11.67 (18:00) 7.22 (18:00) 0 0 0 0 0
10-12-2019 15.8 (13:40) 3.3 (00:00) 9.6 9.72 (01:40) 5.28 (00:20) 0 0 0 0 0
09-12-2019 16.5 (12:10) 6.7 (00:00) 11.6 30 (12:30) 19.72 (12:50) 0 0 0 0 0
08-12-2019 16.7 (14:20) 3.7 (00:00) 10.2 7.22 (16:20) 5.28 (16:10) 0 0 0 0 0
07-12-2019 17.4 (14:50) 4.9 (00:00) 11.1 3.61 (13:00) 2.22 (13:00) 0 0 0 0 0
06-12-2019 18.5 (14:30) 7.3 (00:00) 12.9 5.28 (16:00) 3.33 (14:50) 0 0 0 0 0
05-12-2019 17 (13:50) 4.9 (00:00) 11 5.28 (14:30) 3.61 (14:30) 0.4 0.2 0.2 0 0
04-12-2019 14.8 (00:00) 6.6 (00:00) 10.7 15.28 (05:00) 8.89 (05:00) 65.6 47.4 13 4.8 0.4
03-12-2019 15.1 (21:20) 10.9 (00:00) 13 13.61 (10:20) 8.61 (10:30) 5.4 0 0 0 5.4
02-12-2019 14.7 (15:40) 11.7 (00:00) 13.2 11.39 (15:10) 7.22 (13:50) 24 22.4 1.6 0 0
01-12-2019 18.2 (14:10) 12.9 (00:00) 15.6 7.78 (11:30) 5.83 (11:40) 0 0 0 0 0
30-11-2019 18.2 (14:00) 8.1 (00:00) 13.2 7.5 (16:00) 5.28 (13:20) 0 0 0 0 0
29-11-2019 21.9 (14:00) 10.1 (00:00) 16 7.78 (02:30) 5.83 (02:30) 0 0 0 0 0
28-11-2019 20 (13:40) 9 (00:00) 14.5 10 (14:50) 6.39 (20:40) 0 0 0 0 0
27-11-2019 20.3 (12:20) 11.3 (00:00) 15.8 10.56 (12:10) 6.67 (12:10) 0 0 0 0 0
26-11-2019 18.3 (13:50) 7.2 (00:00) 12.7 9.72 (16:30) 6.67 (16:30) 0 0 0 0 0
25-11-2019 20 (14:20) 8.4 (00:00) 14.2 7.22 (13:40) 5.28 (11:40) 0 0 0 0 0
24-11-2019 15.4 (13:20) 10.7 (00:00) 13 13.06 (05:40) 6.11 (05:40) 0 0 0 0 0
23-11-2019 16.1 (03:10) 12.2 (00:00) 14.2 18.33 (20:10) 10.56 (00:10) 10.2 8.6 0.2 1.2 0.2
22-11-2019 16.8 (14:30) 8.2 (00:00) 12.5 16.11 (23:30) 10.56 (23:00) 15.6 0.4 2 0.2 13
21-11-2019 15.6 (12:30) 6.3 (00:00) 11 9.17 (12:40) 6.39 (12:20) 0.8 0.8 0 0 0
20-11-2019 14.4 (13:30) 1.4 (00:00) 7.9 3.06 (15:30) 2.22 (15:30) 0.2 0 0 0 0.2
19-11-2019 14.2 (14:50) 3.1 (00:00) 8.6 8.33 (12:00) 5 (14:50) 0.2 0.2 0 0 0
18-11-2019 14.5 (13:00) 9.2 (00:00) 11.8 10.28 (13:20) 6.39 (13:20) 2 1.8 0 0.2 0
17-11-2019 14.5 (12:50) 8.5 (00:00) 11.5 17.22 (03:20) 9.44 (04:20) 0.2 0.2 0 0 0
16-11-2019 13.2 (13:00) 4.3 (00:00) 8.8 10.83 (02:20) 7.5 (02:20) 2.2 0.2 0 1.2 0.8

Gráficas

Temp. máximas Temp. mínimas Temp. medias Precipitaciones Rachas de viento máximas Velocidades máximas media en intervalos de 10 minutos

Datos horarios

Fecha y hora oficial Temperatura (ºC) Velocidad del viento (km/h) Dirección del viento Racha (km/h) Dirección de racha Precipitación (mm) Presión (hPa) Tendencia (hPa) Humedad (%)
2019-12-15 23:00:00 9.1 7 Sudoeste 10 Sudoeste 0 -- -- 94
2019-12-15 22:00:00 9 8 Sudoeste 10 Sudoeste 0 -- -- 95
2019-12-15 21:00:00 9.8 7 Sudoeste 9 Sudoeste 0 -- -- 93
2019-12-15 20:00:00 11 7 Oeste 10 Oeste 0 -- -- 90
2019-12-15 19:00:00 11.4 7 Sudoeste 11 Oeste 0 -- -- 88
2019-12-15 18:00:00 12.5 7 Sudoeste 14 Sudoeste 0 -- -- 82
2019-12-15 17:00:00 14 14 Sudoeste 27 Sudoeste 0 -- -- 73
2019-12-15 16:00:00 15.3 20 Sudoeste 31 Sudoeste 0 -- -- 69
2019-12-15 15:00:00 16.3 21 Sudoeste 31 Sudoeste 0 -- -- 62
2019-12-15 14:00:00 17 19 Sudoeste 29 Sudoeste 0 -- -- 58
2019-12-15 13:00:00 16.5 16 Sudoeste 24 Sur 0 -- -- 67
2019-12-15 12:00:00 16.2 13 Sudoeste 21 Sudoeste 0 -- -- 69
2019-12-15 11:00:00 15 14 Sudoeste 25 Sudoeste 0 -- -- 75
2019-12-15 10:00:00 13.2 12 Sudoeste 17 Oeste 0 -- -- 89
2019-12-15 09:00:00 8.6 5 Oeste 10 Oeste 0 -- -- 94
2019-12-15 08:00:00 7.1 3 Sudoeste 10 Oeste 0 -- -- 96
2019-12-15 07:00:00 6.5 3 Oeste 11 Sudoeste 0 -- -- 92
2019-12-15 06:00:00 7 5 Sudoeste 9 Sudoeste 0 -- -- 93
2019-12-15 05:00:00 8.3 8 Oeste 14 Oeste 0 -- -- 92
2019-12-15 04:00:00 9.6 9 Oeste 15 Oeste 0 -- -- 91
2019-12-15 03:00:00 8.6 6 Oeste 12 Sudoeste 0 -- -- 93
2019-12-15 02:00:00 9.5 9 Sudoeste 12 Sudoeste 0 -- -- 91
2019-12-15 01:00:00 10 8 Oeste 15 Oeste 0 -- -- 90
2019-12-15 00:00:00 10.7 10 Oeste 15 Sudoeste 0 -- -- 89
2019-12-14 23:00:00 10.2 9 Sudoeste 13 Sudoeste 0 -- -- 91
2019-12-14 22:00:00 10.7 5 Oeste 10 Oeste 0 -- -- 92
2019-12-14 21:00:00 11.2 8 Oeste 11 Sur 0 -- -- 93
2019-12-14 20:00:00 11.2 6 Sudoeste 8 Sudoeste 0 -- -- 90
2019-12-14 19:00:00 12.4 0 Calma 4 Oeste 0 -- -- 88
2019-12-14 18:00:00 14.1 3 Oeste 19 Sur 0 -- -- 84
2019-12-14 17:00:00 15.3 13 Sudoeste 23 Sudoeste 0 -- -- 81
2019-12-14 16:00:00 17 18 Sudoeste 29 Sur 0 -- -- 76
2019-12-14 15:00:00 18.3 21 Sur 35 Sur 0 -- -- 70
2019-12-14 14:00:00 19.8 20 Sur 30 Sur 0 -- -- 61
2019-12-14 13:00:00 20.9 13 Sur 17 Sudoeste 0 -- -- 45
2019-12-14 12:00:00 19.8 9 Sudoeste 32 Sudoeste 0 -- -- 50
2019-12-14 11:00:00 18.4 18 Sudoeste 27 Sudoeste 0 -- -- 53
2019-12-14 10:00:00 16.7 15 Sudoeste 26 Oeste 0 -- -- 63
2019-12-14 09:00:00 15.6 15 Oeste 32 Oeste 0 -- -- 67
2019-12-14 08:00:00 14.3 11 Sudoeste 24 Sudoeste 0 -- -- 66
2019-12-14 07:00:00 14.3 6 Oeste 30 Sur 0 -- -- 72
2019-12-14 06:00:00 14.2 13 Sudoeste 33 Oeste 0 -- -- 74
2019-12-14 05:00:00 16.5 23 Noroeste 47 Noroeste 0 -- -- 65
2019-12-14 04:00:00 18 23 Noroeste 39 Oeste 0 -- -- 57
2019-12-14 03:00:00 17.9 23 Oeste 40 Oeste 0 -- -- 58
2019-12-14 02:00:00 16.8 24 Sudoeste 43 Sudoeste 0 -- -- 66
2019-12-14 01:00:00 17.3 27 Sudoeste 41 Sudoeste 0 -- -- 63
2019-12-14 00:00:00 17.5 24 Sudoeste 50 Sudoeste 0 -- -- 62
2019-12-13 23:00:00 17.4 27 Sudoeste 50 Sudoeste 0 -- -- 65
2019-12-13 22:00:00 17.8 23 Sudoeste 39 Sudoeste 0 -- -- 62
2019-12-13 21:00:00 17 18 Sudoeste 27 Sur 0 -- -- 67
2019-12-13 20:00:00 18.3 27 Sudoeste 75 Oeste 0 -- -- 59
2019-12-13 19:00:00 19.1 22 Oeste 49 Sur 0 -- -- 51
2019-12-13 18:00:00 17.4 24 Sudoeste 61 Sudoeste 0 -- -- 63
2019-12-13 17:00:00 19.5 28 Oeste 65 Oeste 0 -- -- 49
2019-12-13 16:00:00 19.5 26 Oeste 59 Sudoeste 0 -- -- 50
2019-12-13 15:00:00 18.3 26 Sudoeste 52 Sudoeste 0 -- -- 60
2019-12-13 14:00:00 18.3 31 Sudoeste 50 Sudoeste 0 -- -- 61
2019-12-13 13:00:00 18.2 27 Sudoeste 49 Sudoeste 0 -- -- 63
2019-12-13 12:00:00 17.7 33 Sudoeste 53 Sudoeste 0 -- -- 66
2019-12-13 11:00:00 17.6 26 Oeste 46 Sudoeste 0 -- -- 67
2019-12-13 10:00:00 16.5 26 Sudoeste 42 Sudoeste 0 -- -- 72
2019-12-13 09:00:00 15.5 25 Sudoeste 45 Sudoeste 0 -- -- 75
2019-12-13 08:00:00 14.9 26 Sudoeste 44 Sudoeste 0 -- -- 76
2019-12-13 07:00:00 15 26 Sudoeste 44 Sudoeste 0 -- -- 74
2019-12-13 06:00:00 14.5 24 Sudoeste 45 Sudoeste 0 -- -- 75
2019-12-13 05:00:00 14.5 25 Sudoeste 41 Sudoeste 0 -- -- 75
2019-12-13 04:00:00 14.2 20 Sudoeste 42 Sudoeste 0 -- -- 74
2019-12-13 03:00:00 14.4 24 Sudoeste 37 Sudoeste 0 -- -- 70
2019-12-13 02:00:00 14.1 24 Sudoeste 45 Sudoeste 0 -- -- 71
2019-12-13 01:00:00 12.8 23 Sudoeste 35 Sudoeste 0 -- -- 73
2019-12-13 00:00:00 12.8 26 Sudoeste 40 Sudoeste 0 -- -- 70
2019-12-12 23:00:00 13.1 22 Sudoeste 34 Sudoeste 0 -- -- 69
2019-12-12 22:00:00 13.3 20 Oeste 35 Oeste 0 -- -- 69
2019-12-12 21:00:00 12.4 15 Sudoeste 28 Sudoeste 0 -- -- 75
2019-12-12 20:00:00 11.9 18 Sudoeste 24 Sudoeste 0 -- -- 75
2019-12-12 19:00:00 11.2 12 Sudoeste 15 Sudoeste 0 -- -- 79
2019-12-12 18:00:00 10.7 7 Sudoeste 17 Sudoeste 0 -- -- 79
2019-12-12 17:00:00 12.8 13 Sudoeste 26 Oeste 0 -- -- 70
2019-12-12 16:00:00 13.3 15 Oeste 26 Oeste 0 -- -- 67
2019-12-12 15:00:00 14.2 18 Oeste 31 Oeste 0 -- -- 59
2019-12-12 14:00:00 15.1 21 Oeste 37 Oeste 0 -- -- 55
2019-12-12 13:00:00 15.1 21 Oeste 35 Oeste 0 -- -- 54
2019-12-12 12:00:00 14.8 17 Oeste 33 Oeste 0 -- -- 54
2019-12-12 11:00:00 13.9 14 Oeste 26 Oeste 0 -- -- 55
2019-12-12 10:00:00 13.2 18 Sudoeste 40 Sudoeste 0 -- -- 56
2019-12-12 09:00:00 12.9 15 Oeste 36 Noroeste 0 -- -- 55
2019-12-12 08:00:00 12.4 18 Oeste 42 Oeste 0 -- -- 59
2019-12-12 07:00:00 12.3 19 Noroeste 38 Noroeste 0 -- -- 58
2019-12-12 06:00:00 12.9 16 Noroeste 33 Oeste 0 -- -- 55
2019-12-12 05:00:00 12.8 15 Oeste 37 Oeste 0 -- -- 57
2019-12-12 04:00:00 12.5 22 Oeste 47 Oeste 0 -- -- 58
2019-12-12 03:00:00 11.9 14 Oeste 33 Oeste 0 -- -- 57
2019-12-12 02:00:00 12.3 21 Noroeste 40 Oeste 0 -- -- 55
2019-12-12 01:00:00 11.8 15 Noroeste 26 Noroeste 0 -- -- 61
2019-12-12 00:00:00 10.5 4 Sudoeste 13 Sudoeste 0 -- -- 84
2019-12-11 23:00:00 10.5 5 Este 31 Nordeste 0 -- -- 82
2019-12-11 22:00:00 11.9 16 Nordeste 25 Nordeste 0 -- -- 77
2019-12-11 21:00:00 12.4 5 Este 12 Nordeste 0 -- -- 73
2019-12-11 20:00:00 13.1 6 Norte 35 Norte 0 -- -- 67
2019-12-11 19:00:00 13.5 11 Noroeste 42 Noroeste 0 -- -- 66
2019-12-11 18:00:00 14.3 26 Noroeste 42 Noroeste 0 -- -- 63
2019-12-11 17:00:00 14.9 14 Oeste 26 Noroeste 0 -- -- 55
2019-12-11 16:00:00 15.9 14 Oeste 28 Sudoeste 0 -- -- 55
2019-12-11 15:00:00 15.3 16 Sudoeste 29 Sudoeste 0 -- -- 68
2019-12-11 14:00:00 16 20 Sudoeste 30 Sudoeste 0 -- -- 74
2019-12-11 13:00:00 15.7 18 Sudoeste 26 Sudoeste 0 -- -- 76
2019-12-11 12:00:00 14.6 18 Sudoeste 25 Sudoeste 0 -- -- 78
2019-12-11 11:00:00 14 17 Sudoeste 24 Oeste 0 -- -- 75
2019-12-11 10:00:00 11.3 8 Sudoeste 12 Sudoeste 0 -- -- 78
2019-12-11 09:00:00 4.6 5 Oeste 8 Sudoeste 0 -- -- 94
2019-12-11 08:00:00 2.1 0 Calma 8 Oeste 0 -- -- 94
2019-12-11 07:00:00 1.8 2 Oeste 9 Noroeste 0 -- -- 93
2019-12-11 06:00:00 2 0 Calma 6 Oeste 0 -- -- 95
2019-12-11 05:00:00 2.3 0 Calma 10 Sudoeste 0 -- -- 96
2019-12-11 04:00:00 1.6 3 Oeste 6 Sudoeste 0 -- -- 94
2019-12-11 03:00:00 2.5 4 Oeste 7 Oeste 0 -- -- 95
2019-12-11 02:00:00 3.2 5 Oeste 7 Sur 0 -- -- 94
2019-12-11 01:00:00 3 5 Oeste 6 Noroeste 0 -- -- 94
2019-12-11 00:00:00 3.3 0 Calma 5 Noroeste 0 -- -- 93
2019-12-10 23:00:00 4.4 3 Oeste 9 Sur 0 -- -- 93
2019-12-10 22:00:00 5.1 5 Noroeste 8 Oeste 0 -- -- 93
2019-12-10 21:00:00 5.7 4 Sur 6 Sudoeste 0 -- -- 90
2019-12-10 20:00:00 7.4 0 Calma 13 Oeste 0 -- -- 86
2019-12-10 19:00:00 9.2 7 Sudoeste 10 Sudoeste 0 -- -- 82
2019-12-10 18:00:00 10.7 5 Sudoeste 16 Sudoeste 0 -- -- 76
2019-12-10 17:00:00 13.1 11 Sudoeste 19 Sudoeste 0 -- -- 69
2019-12-10 16:00:00 14.1 15 Sudoeste 23 Sudoeste 0 -- -- 63
2019-12-10 15:00:00 15.3 10 Sudoeste 18 Sudoeste 0 -- -- 57
2019-12-10 14:00:00 15.6 5 Sur 13 Sudoeste 0 -- -- 54
2019-12-10 13:00:00 15.6 2 Sudoeste 14 Nordeste 0 -- -- 48
2019-12-10 12:00:00 15.2 6 Este 19 Este 0 -- -- 54
2019-12-10 11:00:00 14.8 10 Este 22 Nordeste 0 -- -- 60
2019-12-10 10:00:00 13.8 12 Este 21 Este 0 -- -- 66
2019-12-10 09:00:00 11.9 10 Este 18 Este 0 -- -- 71
2019-12-10 08:00:00 9.9 5 Este 13 Sudeste 0 -- -- 74
2019-12-10 07:00:00 11 8 Sudeste 15 Sudeste 0 -- -- 67
2019-12-10 06:00:00 11.4 8 Sur 18 Sudoeste 0 -- -- 68
2019-12-10 05:00:00 11.7 10 Sudeste 17 Sudoeste 0 -- -- 67
2019-12-10 04:00:00 12.3 11 Sudoeste 25 Oeste 0 -- -- 64
2019-12-10 03:00:00 12 9 Sur 18 Sur 0 -- -- 64
2019-12-10 02:00:00 11.9 10 Sur 35 Sudoeste 0 -- -- 66
2019-12-10 01:00:00 11.6 9 Oeste 34 Sudoeste 0 -- -- 70
2019-12-10 00:00:00 12.5 12 Sudoeste 23 Sudoeste 0 -- -- 64
2019-12-09 23:00:00 12.9 17 Sur 36 Oeste 0 -- -- 62
2019-12-09 22:00:00 13.7 17 Noroeste 43 Norte 0 -- -- 61
2019-12-09 21:00:00 14.1 32 Noroeste 58 Noroeste 0 -- -- 59
2019-12-09 20:00:00 14.4 37 Noroeste 62 Noroeste 0 -- -- 57
2019-12-09 19:00:00 14.4 39 Noroeste 62 Norte 0 -- -- 59
2019-12-09 18:00:00 14.5 45 Noroeste 78 Noroeste 0 -- -- 58
2019-12-09 17:00:00 14.5 56 Noroeste 81 Noroeste 0 -- -- 56
2019-12-09 16:00:00 14.8 52 Noroeste 81 Noroeste 0 -- -- 57
2019-12-09 15:00:00 15.1 53 Noroeste 93 Noroeste 0.4 -- -- 55
2019-12-09 14:00:00 15.2 59 Noroeste 94 Noroeste 0 -- -- 52
2019-12-09 13:00:00 15.5 66 Noroeste 108 Noroeste 1.2 -- -- 46
2019-12-09 12:00:00 16.2 57 Noroeste 94 Noroeste 0.2 -- -- 44
2019-12-09 11:00:00 16 28 Noroeste 60 Noroeste 0 -- -- 45
2019-12-09 10:00:00 15.2 19 Oeste 41 Noroeste 0 -- -- 51
2019-12-09 09:00:00 14.8 19 Noroeste 40 Noroeste 0 -- -- 55
2019-12-09 08:00:00 6.7 4 Norte 7 Oeste 0 -- -- 95
2019-12-09 07:00:00 7.5 4 Noroeste 6 Este 0 -- -- 95
2019-12-09 06:00:00 8.6 4 Nordeste 11 Nordeste 0 -- -- 93
2019-12-09 05:00:00 10.6 9 Sudoeste 12 Sudoeste 0 -- -- 94
2019-12-09 04:00:00 11.1 3 Norte 13 Sudeste 0 -- -- 94
2019-12-09 03:00:00 11.8 7 Sudeste 10 Sudeste 0 -- -- 93
2019-12-09 02:00:00 11.6 3 Sudoeste 13 Sur 0 -- -- 91
2019-12-09 01:00:00 11.7 2 Noroeste 14 Oeste 0 -- -- 94
2019-12-09 00:00:00 10.5 3 Sudoeste 10 Noroeste 0 -- -- 95
2019-12-08 23:00:00 10.1 7 Oeste 13 Oeste 0 -- -- 93
2019-12-08 22:00:00 10.2 9 Oeste 15 Oeste 0 -- -- 94
2019-12-08 21:00:00 11.3 12 Oeste 17 Oeste 0 -- -- 90
2019-12-08 20:00:00 10.7 10 Oeste 16 Oeste 0 -- -- 92
2019-12-08 19:00:00 11.3 9 Oeste 18 Oeste 0 -- -- 90
2019-12-08 18:00:00 12.5 12 Sudoeste 23 Oeste 0 -- -- 87
2019-12-08 17:00:00 14 17 Sudoeste 26 Sudoeste 0 -- -- 82
2019-12-08 16:00:00 15.6 18 Sudoeste 26 Sur 0 -- -- 79
2019-12-08 15:00:00 16.4 14 Sudoeste 21 Sudoeste 0 -- -- 76
2019-12-08 14:00:00 16.5 10 Sudoeste 15 Sudoeste 0 -- -- 73
2019-12-08 13:00:00 16.2 3 Sur 10 Sur 0 -- -- 77
2019-12-08 12:00:00 13.8 4 Sudoeste 8 Sur 0 -- -- 94
2019-12-08 11:00:00 11.5 2 Sudoeste 8 Sur 0 -- -- 97
2019-12-08 10:00:00 9.2 2 Sudoeste 5 Noroeste 0 -- -- 99
2019-12-08 09:00:00 5.8 3 Oeste 8 Noroeste 0 -- -- 99
2019-12-08 08:00:00 5.3 4 Oeste 5 Noroeste 0 -- -- 98
2019-12-08 07:00:00 6.3 4 Oeste 9 Oeste 0 -- -- 99
2019-12-08 06:00:00 4.1 3 Oeste 8 Sur 0 -- -- 99
2019-12-08 05:00:00 3.8 4 Oeste 5 Oeste 0 -- -- 99
2019-12-08 04:00:00 4.2 3 Sudoeste 5 Sudoeste 0 -- -- 98
2019-12-08 03:00:00 4.9 2 Oeste 8 Noroeste 0 -- -- 99
2019-12-08 02:00:00 5.1 4 Sudoeste 5 Sudoeste 0 -- -- 99
2019-12-08 01:00:00 5.4 3 Sudoeste 5 Sudoeste 0 -- -- 98
2019-12-08 00:00:00 5.7 3 Noroeste 5 Norte 0 -- -- 97
2019-12-07 23:00:00 6.7 2 Oeste 5 Sudoeste 0 -- -- 98
2019-12-07 22:00:00 7 2 Oeste 4 Oeste 0 -- -- 96
2019-12-07 21:00:00 7.6 2 Sudoeste 6 Noroeste 0 -- -- 96
2019-12-07 20:00:00 9 4 Noroeste 6 Noroeste 0 -- -- 95
2019-12-07 19:00:00 10.2 3 Noroeste 5 Noroeste 0 -- -- 93
2019-12-07 18:00:00 11.8 0 Calma 6 Sudoeste 0 -- -- 91
2019-12-07 17:00:00 13.6 2 Este 5 Norte 0 -- -- 84
2019-12-07 16:00:00 16.2 3 Norte 8 Sudeste 0 -- -- 74
2019-12-07 15:00:00 17.3 4 Este 9 Sudeste 0 -- -- 71
2019-12-07 14:00:00 14.6 4 Sudeste 13 Este 0 -- -- 83
2019-12-07 13:00:00 15.1 8 Este 13 Este 0 -- -- 85
2019-12-07 12:00:00 14.4 4 Este 6 Este 0 -- -- 95
2019-12-07 11:00:00 10.9 4 Sur 6 Sur 0 -- -- 97
2019-12-07 10:00:00 7.9 0 Calma 8 Norte 0 -- -- 99
2019-12-07 09:00:00 6.1 4 Oeste 7 Sudoeste 0 -- -- 99
2019-12-07 08:00:00 5.6 4 Sudoeste 8 Noroeste 0 -- -- 99
2019-12-07 07:00:00 4.9 5 Oeste 9 Sur 0 -- -- 98
2019-12-07 06:00:00 5.1 3 Sudeste 10 Sur 0 -- -- 98
2019-12-07 05:00:00 6 5 Norte 8 Sur 0 -- -- 98
2019-12-07 04:00:00 6.2 3 Noroeste 5 Noroeste 0 -- -- 99
2019-12-07 03:00:00 6.6 5 Noroeste 6 Noroeste 0 -- -- 96
2019-12-07 02:00:00 6.5 3 Sudoeste 5 Sudoeste 0 -- -- 97
2019-12-07 01:00:00 6.7 3 Sudoeste 4 Noroeste 0 -- -- 97
2019-12-07 00:00:00 7.7 0 Calma 5 Noroeste 0 -- -- 97
2019-12-06 23:00:00 8.7 2 Noroeste 7 Noroeste 0 -- -- 96
2019-12-06 22:00:00 9.8 0 Calma 7 Oeste 0 -- -- 96
2019-12-06 21:00:00 10.4 2 Oeste 5 Noroeste 0 -- -- 95
2019-12-06 20:00:00 11.2 3 Norte 4 Norte 0 -- -- 94
2019-12-06 19:00:00 11.2 3 Norte 6 Nordeste 0 -- -- 91
2019-12-06 18:00:00 12.7 5 Nordeste 8 Nordeste 0 -- -- 87
2019-12-06 17:00:00 15.2 5 Este 17 Este 0 -- -- 80
2019-12-06 16:00:00 16.6 11 Este 19 Este 0 -- -- 77
2019-12-06 15:00:00 17.7 12 Este 18 Este 0 -- -- 74
2019-12-06 14:00:00 18.1 4 Este 12 Este 0 -- -- 67
2019-12-06 13:00:00 17.3 4 Este 15 Sudeste 0 -- -- 76
2019-12-06 12:00:00 16.2 8 Este 13 Este 0 -- -- 88
2019-12-06 11:00:00 14 2 Sudeste 6 Sudoeste 0 -- -- 96
2019-12-06 10:00:00 9.5 4 Sudoeste 5 Sudoeste 0 -- -- 98
2019-12-06 09:00:00 8.4 3 Noroeste 6 Noroeste 0 -- -- 98
2019-12-06 08:00:00 7.8 3 Oeste 6 Sur 0 -- -- 98
2019-12-06 07:00:00 7.5 3 Sur 6 Noroeste 0 -- -- 98
2019-12-06 06:00:00 7.5 4 Noroeste 8 Sudoeste 0 -- -- 98
2019-12-06 05:00:00 7.5 4 Noroeste 12 Sur 0 -- -- 98
2019-12-06 04:00:00 7.4 2 Norte 6 Norte 0 -- -- 97
2019-12-06 03:00:00 7.5 3 Oeste 6 Noroeste 0 -- -- 97
2019-12-06 02:00:00 7.5 5 Sudoeste 9 Sur 0 -- -- 97
2019-12-06 01:00:00 7.6 2 Oeste 5 Oeste 0 -- -- 97
2019-12-06 00:00:00 8.5 5 Sudoeste 8 Sur 0 -- -- 96
2019-12-05 23:00:00 8.7 3 Noroeste 8 Noroeste 0 -- -- 96
2019-12-05 22:00:00 9 8 Noroeste 9 Noroeste 0 -- -- 96
2019-12-05 21:00:00 9.3 4 Sudoeste 9 Sur 0 -- -- 94
2019-12-05 20:00:00 10.2 6 Norte 10 Norte 0 -- -- 93
2019-12-05 19:00:00 11.4 5 Noroeste 8 Noroeste 0 -- -- 91
2019-12-05 18:00:00 12.5 7 Sudoeste 10 Sudoeste 0 -- -- 87
2019-12-05 17:00:00 16.1 3 Sudoeste 10 Oeste 0 -- -- 73
2019-12-05 16:00:00 16.6 7 Oeste 17 Sudoeste 0 -- -- 71
2019-12-05 15:00:00 16.6 11 Sudoeste 19 Sudoeste 0 -- -- 74
2019-12-05 14:00:00 16.9 11 Sudoeste 16 Sudoeste 0 -- -- 72
2019-12-05 13:00:00 16.3 7 Oeste 14 Oeste 0 -- -- 75
2019-12-05 12:00:00 15.8 9 Sudoeste 14 Sudoeste 0 -- -- 81
2019-12-05 11:00:00 14.4 4 Sudoeste 8 Sudoeste 0.2 -- -- 90
2019-12-05 10:00:00 11 0 Calma 6 Sudoeste 0 -- -- 96
2019-12-05 09:00:00 7.6 0 Calma 8 Sudoeste 0 -- -- 98
2019-12-05 08:00:00 4.9 3 Oeste 9 Sudoeste 0 -- -- 98
2019-12-05 07:00:00 5.5 5 Sudoeste 8 Sudoeste 0 -- -- 99
2019-12-05 06:00:00 5.6 4 Noroeste 9 Sudoeste 0 -- -- 98
2019-12-05 05:00:00 5.9 2 Oeste 6 Norte 0.2 -- -- 98
2019-12-05 04:00:00 6.9 5 Sudoeste 9 Sur 0 -- -- 97
2019-12-05 03:00:00 6.5 2 Sur 8 Sudoeste 0 -- -- 98
2019-12-05 02:00:00 6.4 3 Sudoeste 8 Sur 0 -- -- 97
2019-12-05 01:00:00 6.6 6 Sudoeste 8 Sudoeste 0 -- -- 97
2019-12-05 00:00:00 6.6 0 Calma 8 Oeste 0 -- -- 98
2019-12-04 23:00:00 7.3 6 Oeste 8 Sudoeste 0.2 -- -- 97
2019-12-04 22:00:00 7.6 4 Norte 7 Norte 0 -- -- 96
2019-12-04 21:00:00 8.6 3 Norte 8 Norte 0 -- -- 96
2019-12-04 20:00:00 8.5 3 Noroeste 5 Norte 0.2 -- -- 95
2019-12-04 19:00:00 9.5 3 Nordeste 9 Norte 0 -- -- 94
2019-12-04 18:00:00 10.3 4 Norte 13 Nordeste 0 -- -- 94
2019-12-04 17:00:00 11.2 6 Nordeste 14 Nordeste 0.2 -- -- 93
2019-12-04 16:00:00 11.5 7 Nordeste 21 Nordeste 0.2 -- -- 94
2019-12-04 15:00:00 10.3 10 Nordeste 23 Este 0.2 -- -- 95
2019-12-04 14:00:00 10.3 14 Nordeste 24 Norte 1.8 -- -- 95
2019-12-04 13:00:00 10.6 7 Este 24 Noroeste 2.4 -- -- 94
2019-12-04 12:00:00 10.7 13 Oeste 28 Este 2.6 -- -- 92
2019-12-04 11:00:00 14.2 10 Nordeste 21 Este 0.4 -- -- 93
2019-12-04 10:00:00 12.3 10 Nordeste 27 Este 4 -- -- 94
2019-12-04 09:00:00 10.6 10 Norte 23 Nordeste 3.2 -- -- 93
2019-12-04 08:00:00 11.1 13 Nordeste 33 Sudeste 2.8 -- -- 92
2019-12-04 07:00:00 13.9 7 Este 38 Este 0 -- -- 91
2019-12-04 06:00:00 12.9 4 Noroeste 44 Sudeste 9 -- -- 92
2019-12-04 05:00:00 14.4 32 Sudeste 55 Sudeste 5 -- -- 93
2019-12-04 04:00:00 10.9 15 Norte 36 Sur 9.2 -- -- 92
2019-12-04 03:00:00 12.2 12 Sudoeste 42 Este 0.6 -- -- 92
2019-12-04 02:00:00 14.4 24 Este 50 Este 20.8 -- -- 95
2019-12-04 01:00:00 14.8 21 Este 50 Nordeste 2.8 -- -- 94
2019-12-04 00:00:00 14.8 24 Nordeste 44 Nordeste 3.2 -- -- 93
2019-12-03 23:00:00 14.6 18 Este 38 Nordeste 2 -- -- 92
2019-12-03 22:00:00 14.8 15 Nordeste 38 Nordeste 0.2 -- -- 89
2019-12-03 21:00:00 14.9 24 Nordeste 44 Nordeste 0 -- -- 86
2019-12-03 20:00:00 14.9 24 Nordeste 45 Nordeste 0 -- -- 85
2019-12-03 19:00:00 13.9 23 Nordeste 46 Este 0 -- -- 82
2019-12-03 18:00:00 13.8 23 Nordeste 39 Nordeste 0 -- -- 83
2019-12-03 17:00:00 13.5 21 Nordeste 38 Nordeste 0 -- -- 82
2019-12-03 16:00:00 13.6 20 Nordeste 39 Nordeste 0 -- -- 80
2019-12-03 15:00:00 14.1 21 Nordeste 36 Nordeste 0 -- -- 79
2019-12-03 14:00:00 14.2 21 Nordeste 36 Nordeste 0 -- -- 78
2019-12-03 13:00:00 14.6 25 Nordeste 44 Nordeste 0 -- -- 73
2019-12-03 12:00:00 12.7 27 Nordeste 47 Nordeste 0 -- -- 75
2019-12-03 11:00:00 12.8 27 Nordeste 49 Nordeste 0 -- -- 73
2019-12-03 10:00:00 12.5 26 Nordeste 45 Nordeste 0 -- -- 73
2019-12-03 09:00:00 11.2 19 Nordeste 43 Nordeste 0 -- -- 78
2019-12-03 08:00:00 11 23 Nordeste 41 Nordeste 0 -- -- 79
2019-12-03 07:00:00 11.1 24 Nordeste 42 Nordeste 0 -- -- 76
2019-12-03 06:00:00 11 23 Nordeste 47 Nordeste 0 -- -- 79
2019-12-03 05:00:00 11 19 Nordeste 41 Nordeste 0 -- -- 81
2019-12-03 04:00:00 11.1 18 Nordeste 38 Nordeste 0 -- -- 82
2019-12-03 03:00:00 11.4 20 Nordeste 37 Nordeste 0 -- -- 81
2019-12-03 02:00:00 11.8 16 Nordeste 33 Nordeste 0 -- -- 79
2019-12-03 01:00:00 11.9 17 Nordeste 31 Nordeste 0 -- -- 79
2019-12-03 00:00:00 12 20 Nordeste 31 Nordeste 0 -- -- 78
2019-12-02 23:00:00 12.2 18 Nordeste 27 Nordeste 0 -- -- 78
2019-12-02 22:00:00 12 16 Nordeste 31 Nordeste 0 -- -- 80
2019-12-02 21:00:00 11.9 16 Nordeste 28 Nordeste 0 -- -- 81
2019-12-02 20:00:00 11.7 15 Nordeste 26 Nordeste 0 -- -- 81
2019-12-02 19:00:00 11.8 18 Nordeste 28 Nordeste 0 -- -- 81
2019-12-02 18:00:00 12 14 Nordeste 31 Nordeste 0 -- -- 80
2019-12-02 17:00:00 13.4 17 Nordeste 35 Nordeste 0 -- -- 76
2019-12-02 16:00:00 14 18 Nordeste 41 Nordeste 0 -- -- 74
2019-12-02 15:00:00 14.5 20 Nordeste 39 Nordeste 0 -- -- 75
2019-12-02 14:00:00 14.4 22 Nordeste 40 Nordeste 0 -- -- 78
2019-12-02 13:00:00 14.1 20 Nordeste 33 Nordeste 0 -- -- 80
2019-12-02 12:00:00 13.5 18 Nordeste 32 Nordeste 0 -- -- 83
2019-12-02 11:00:00 13.3 18 Nordeste 30 Nordeste 0 -- -- 88
2019-12-02 10:00:00 12.8 17 Nordeste 27 Nordeste 0 -- -- 93
2019-12-02 09:00:00 12.4 15 Nordeste 28 Nordeste 0 -- -- 95
2019-12-02 08:00:00 12.6 18 Nordeste 28 Nordeste 0.6 -- -- 96
2019-12-02 07:00:00 12.6 13 Nordeste 24 Nordeste 1 -- -- 96
2019-12-02 06:00:00 12.7 13 Nordeste 23 Nordeste 11.2 -- -- 96
2019-12-02 05:00:00 12.8 7 Sudeste 16 Sudeste 11 -- -- 95
2019-12-02 04:00:00 13.6 4 Norte 13 Nordeste 0.2 -- -- 94
2019-12-02 03:00:00 13.8 9 Nordeste 15 Nordeste 0 -- -- 94
2019-12-02 02:00:00 13.2 8 Nordeste 15 Nordeste 0 -- -- 95
2019-12-02 01:00:00 13 5 Nordeste 7 Nordeste 0 -- -- 95
2019-12-02 00:00:00 13 2 Este 5 Norte 0 -- -- 95
2019-12-01 23:00:00 13.1 4 Norte 6 Norte 0 -- -- 95
2019-12-01 22:00:00 13.2 4 Norte 9 Norte 0 -- -- 95
2019-12-01 21:00:00 13.3 4 Norte 6 Nordeste 0 -- -- 94
2019-12-01 20:00:00 12.9 3 Este 7 Oeste 0 -- -- 94
2019-12-01 19:00:00 13.7 5 Oeste 9 Sur 0 -- -- 93
2019-12-01 18:00:00 14.5 8 Sur 14 Sudoeste 0 -- -- 91
2019-12-01 17:00:00 15.6 11 Sudoeste 22 Sudoeste 0 -- -- 86
2019-12-01 16:00:00 16.3 17 Sudoeste 26 Sudoeste 0 -- -- 83
2019-12-01 15:00:00 17.5 19 Sudoeste 28 Sudoeste 0 -- -- 78
2019-12-01 14:00:00 17.8 19 Sudoeste 27 Sudoeste 0 -- -- 76
2019-12-01 13:00:00 17.6 18 Sudoeste 28 Sudoeste 0 -- -- 76
2019-12-01 12:00:00 16.9 20 Sudoeste 28 Sudoeste 0 -- -- 80
2019-12-01 11:00:00 16.1 15 Sudoeste 23 Sudoeste 0 -- -- 87
2019-12-01 10:00:00 15.6 10 Sudoeste 17 Sudoeste 0 -- -- 93
2019-12-01 09:00:00 14.1 4 Oeste 10 Oeste 0 -- -- 95
2019-12-01 08:00:00 13.2 6 Oeste 9 Sudoeste 0 -- -- 95
2019-12-01 07:00:00 13.4 6 Oeste 9 Oeste 0 -- -- 95
2019-12-01 06:00:00 13.4 5 Oeste 10 Oeste 0 -- -- 95
2019-12-01 05:00:00 14 5 Oeste 10 Oeste 0 -- -- 95
2019-12-01 04:00:00 14.3 5 Oeste 11 Sudoeste 0 -- -- 95
2019-12-01 03:00:00 14.4 7 Oeste 14 Sudoeste 0 -- -- 95
2019-12-01 02:00:00 14.3 12 Sudoeste 17 Sudoeste 0 -- -- 95
2019-12-01 01:00:00 14.4 11 Oeste 18 Oeste 0 -- -- 95
2019-12-01 00:00:00 13.9 9 Sudoeste 17 Sudoeste 0 -- -- 94
2019-11-30 23:00:00 14.2 8 Sudoeste 14 Sudoeste 0 -- -- 94
2019-11-30 22:00:00 14.4 10 Oeste 18 Sudoeste 0 -- -- 93
2019-11-30 21:00:00 14.3 10 Oeste 16 Oeste 0 -- -- 93
2019-11-30 20:00:00 14.5 9 Sudoeste 14 Sudoeste 0 -- -- 92
2019-11-30 19:00:00 14.9 8 Oeste 13 Sudoeste 0 -- -- 92
2019-11-30 18:00:00 15.3 9 Sudoeste 19 Sudoeste 0 -- -- 90
2019-11-30 17:00:00 15.8 12 Sudoeste 24 Sudoeste 0 -- -- 85
2019-11-30 16:00:00 17.4 17 Sudoeste 27 Sudoeste 0 -- -- 77
2019-11-30 15:00:00 17.8 18 Sudoeste 24 Sudoeste 0 -- -- 75
2019-11-30 14:00:00 18.2 16 Sudoeste 26 Sudoeste 0 -- -- 73
2019-11-30 13:00:00 17 17 Sudoeste 23 Sudoeste 0 -- -- 79
2019-11-30 12:00:00 16.6 15 Sudoeste 23 Sudoeste 0 -- -- 82
2019-11-30 11:00:00 15.8 13 Sudoeste 22 Sudoeste 0 -- -- 87
2019-11-30 10:00:00 14.9 12 Sudoeste 17 Sudoeste 0 -- -- 93
2019-11-30 09:00:00 11.9 8 Oeste 12 Oeste 0 -- -- 97
2019-11-30 08:00:00 8.1 6 Sudoeste 11 Sudoeste 0 -- -- 97
2019-11-30 07:00:00 8.8 5 Sudoeste 6 Sudoeste 0 -- -- 97
2019-11-30 06:00:00 8.9 6 Sudoeste 7 Sudoeste 0 -- -- 96
2019-11-30 05:00:00 9.6 4 Oeste 8 Oeste 0 -- -- 97
2019-11-30 04:00:00 9.5 5 Oeste 6 Oeste 0 -- -- 96
2019-11-30 03:00:00 9.5 3 Sudoeste 5 Sudoeste 0 -- -- 96
2019-11-30 02:00:00 9.7 4 Oeste 5 Oeste 0 -- -- 96
2019-11-30 01:00:00 9.1 2 Oeste 5 Sudoeste 0 -- -- 95
2019-11-30 00:00:00 10.2 4 Norte 7 Noroeste 0 -- -- 95
2019-11-29 23:00:00 10.3 5 Noroeste 9 Noroeste 0 -- -- 94
2019-11-29 22:00:00 10.2 4 Noroeste 8 Sur 0 -- -- 93
2019-11-29 21:00:00 10.5 3 Sur 8 Norte 0 -- -- 91
2019-11-29 20:00:00 11.6 5 Noroeste 8 Noroeste 0 -- -- 91
2019-11-29 19:00:00 13.3 3 Norte 4 Noroeste 0 -- -- 88
2019-11-29 18:00:00 15.4 5 Oeste 9 Sur 0 -- -- 83
2019-11-29 17:00:00 18 6 Sudoeste 15 Oeste 0 -- -- 72
2019-11-29 16:00:00 18.7 7 Sudoeste 19 Sur 0 -- -- 73
2019-11-29 15:00:00 18.6 15 Sudoeste 21 Sudoeste 0 -- -- 72
2019-11-29 14:00:00 21.9 3 Sur 16 Oeste 0 -- -- 51
2019-11-29 13:00:00 20.5 11 Sudoeste 20 Sudoeste 0 -- -- 55
2019-11-29 12:00:00 18.9 13 Oeste 19 Oeste 0 -- -- 61
2019-11-29 11:00:00 18.2 12 Oeste 21 Sudoeste 0 -- -- 63
2019-11-29 10:00:00 15.9 13 Sudoeste 19 Sudoeste 0 -- -- 73
2019-11-29 09:00:00 12.6 4 Sudoeste 21 Oeste 0 -- -- 85
2019-11-29 08:00:00 12.1 5 Sudeste 15 Sudoeste 0 -- -- 85
2019-11-29 07:00:00 12.7 11 Sudoeste 18 Sudoeste 0 -- -- 86
2019-11-29 06:00:00 11.9 9 Oeste 17 Sudoeste 0 -- -- 90
2019-11-29 05:00:00 12.3 12 Sudoeste 20 Oeste 0 -- -- 88
2019-11-29 04:00:00 12.3 13 Oeste 21 Oeste 0 -- -- 86
2019-11-29 03:00:00 12.7 16 Sudoeste 28 Sudoeste 0 -- -- 84
2019-11-29 02:00:00 12.6 18 Oeste 23 Oeste 0 -- -- 87
2019-11-29 01:00:00 12.6 13 Oeste 23 Sudoeste 0 -- -- 89
2019-11-29 00:00:00 12.6 12 Sudoeste 15 Sudoeste 0 -- -- 90
2019-11-28 23:00:00 11.8 8 Oeste 17 Oeste 0 -- -- 89
2019-11-28 22:00:00 13 14 Oeste 19 Oeste 0 -- -- 83
2019-11-28 21:00:00 14 17 Oeste 31 Oeste 0 -- -- 79
2019-11-28 20:00:00 13 9 Sudoeste 22 Oeste 0 -- -- 84
2019-11-28 19:00:00 14.2 14 Sudoeste 23 Oeste 0 -- -- 83
2019-11-28 18:00:00 14.4 8 Sudoeste 23 Sudoeste 0 -- -- 79
2019-11-28 17:00:00 15.4 17 Sudoeste 26 Sudoeste 0 -- -- 74
2019-11-28 16:00:00 18.1 17 Sudoeste 29 Sur 0 -- -- 58
2019-11-28 15:00:00 18.4 18 Sudoeste 36 Sudoeste 0 -- -- 65
2019-11-28 14:00:00 19.8 18 Sudoeste 28 Oeste 0 -- -- 56
2019-11-28 13:00:00 19 19 Oeste 30 Sudoeste 0 -- -- 52
2019-11-28 12:00:00 18.5 17 Oeste 24 Sudoeste 0 -- -- 55
2019-11-28 11:00:00 17.8 15 Sudoeste 22 Sudoeste 0 -- -- 62
2019-11-28 10:00:00 16.5 12 Sudoeste 20 Sudoeste 0 -- -- 69
2019-11-28 09:00:00 13.8 10 Sudoeste 15 Sudoeste 0 -- -- 80
2019-11-28 08:00:00 10.7 12 Sur 16 Sudoeste 0 -- -- 85
2019-11-28 07:00:00 12.4 6 Sudeste 17 Sur 0 -- -- 79
2019-11-28 06:00:00 12.2 6 Sudoeste 17 Sudoeste 0 -- -- 81
2019-11-28 05:00:00 10.5 9 Oeste 13 Oeste 0 -- -- 86
2019-11-28 04:00:00 9.8 5 Este 13 Oeste 0 -- -- 85
2019-11-28 03:00:00 10.6 9 Oeste 12 Oeste 0 -- -- 90
2019-11-28 02:00:00 10 3 Sudoeste 13 Oeste 0 -- -- 85
2019-11-28 01:00:00 11.5 6 Sudoeste 10 Noroeste 0 -- -- 80
2019-11-28 00:00:00 11.9 4 Oeste 17 Oeste 0 -- -- 82
2019-11-27 23:00:00 12.5 12 Oeste 16 Sudoeste 0 -- -- 84
2019-11-27 22:00:00 12 7 Sudoeste 15 Sudoeste 0 -- -- 89
2019-11-27 21:00:00 11.6 6 Noroeste 16 Sur 0 -- -- 88
2019-11-27 20:00:00 12.2 8 Noroeste 13 Sudoeste 0 -- -- 87
2019-11-27 19:00:00 13.7 7 Sudoeste 11 Oeste 0 -- -- 82
2019-11-27 18:00:00 14.9 6 Sudoeste 20 Sudoeste 0 -- -- 77
2019-11-27 17:00:00 17.3 14 Oeste 26 Sudoeste 0 -- -- 70
2019-11-27 16:00:00 18.3 14 Oeste 25 Sudoeste 0 -- -- 68
2019-11-27 15:00:00 19.4 15 Noroeste 23 Noroeste 0 -- -- 56
2019-11-27 14:00:00 19.7 10 Oeste 25 Oeste 0 -- -- 59
2019-11-27 06:00:00 -- -- -- -- -- -- -- -- --
2019-11-27 05:00:00 15.4 16 Sudoeste 31 Sudoeste 0 -- -- 93
2019-11-27 04:00:00 15 14 Sudoeste 25 Sudoeste 0 -- -- 93
2019-11-27 03:00:00 15.2 17 Sudoeste 33 Sudoeste 0 -- -- 92
2019-11-27 02:00:00 15.2 23 Sudoeste 35 Sudoeste 0 -- -- 92
2019-11-27 01:00:00 15.2 18 Oeste 27 Oeste 0 -- -- 91
2019-11-27 00:00:00 15.2 19 Sudoeste 32 Sudoeste 0 -- -- 91
2019-11-26 23:00:00 14.9 14 Oeste 27 Oeste 0 -- -- 90
2019-11-26 22:00:00 14.4 15 Oeste 23 Oeste 0 -- -- 92
2019-11-26 21:00:00 14.1 12 Oeste 21 Oeste 0 -- -- 90
2019-11-26 20:00:00 14.2 13 Oeste 23 Oeste 0 -- -- 90
2019-11-26 19:00:00 14.1 9 Sudoeste 15 Sudoeste 0 -- -- 92
2019-11-26 18:00:00 14.8 10 Sudoeste 27 Sudoeste 0 -- -- 87
2019-11-26 17:00:00 16.5 19 Sudoeste 35 Sudoeste 0 -- -- 76
2019-11-26 16:00:00 17.7 20 Sudoeste 32 Sudoeste 0 -- -- 68
2019-11-26 15:00:00 18 21 Sudoeste 30 Sur 0 -- -- 72
2019-11-26 14:00:00 18.3 19 Sudoeste 27 Sudoeste 0 -- -- 74
2019-11-26 13:00:00 17.3 17 Sudoeste 25 Sudoeste 0 -- -- 80
2019-11-26 12:00:00 17.7 17 Sudoeste 24 Sudoeste 0 -- -- 77
2019-11-26 11:00:00 16.7 11 Sudoeste 15 Sudoeste 0 -- -- 82
2019-11-26 10:00:00 15.7 6 Oeste 10 Oeste 0 -- -- 86
2019-11-26 09:00:00 11.3 4 Sudoeste 12 Oeste 0 -- -- 92
2019-11-26 08:00:00 7.8 3 Oeste 8 Noroeste 0 -- -- 94
2019-11-26 07:00:00 8.5 3 Oeste 10 Oeste 0 -- -- 91
2019-11-26 06:00:00 7.4 4 Oeste 9 Sudoeste 0 -- -- 95
2019-11-26 05:00:00 7.7 7 Sudoeste 10 Sudoeste 0 -- -- 94
2019-11-26 04:00:00 7.5 4 Oeste 8 Oeste 0 -- -- 92
2019-11-26 03:00:00 8.1 0 Calma 6 Noroeste 0 -- -- 91
2019-11-26 02:00:00 9.3 6 Oeste 15 Noroeste 0 -- -- 89
2019-11-26 01:00:00 8.1 5 Sudoeste 8 Noroeste 0 -- -- 92
2019-11-26 00:00:00 8.4 3 Oeste 11 Sudoeste 0 -- -- 91
2019-11-25 23:00:00 8.6 6 Sudoeste 9 Sudoeste 0 -- -- 91
2019-11-25 22:00:00 8.7 3 Oeste 3 Oeste 0 -- -- 89
2019-11-25 21:00:00 9.8 3 Oeste 6 Oeste 0 -- -- 88
2019-11-25 20:00:00 10.8 2 Oeste 4 Oeste 0 -- -- 84
2019-11-25 19:00:00 12.3 0 Calma 5 Sudoeste 0 -- -- 75
2019-11-25 18:00:00 14.9 4 Noroeste 13 Noroeste 0 -- -- 66
2019-11-25 17:00:00 16.8 8 Noroeste 16 Noroeste 0 -- -- 61
2019-11-25 16:00:00 19.3 11 Noroeste 22 Noroeste 0 -- -- 53
2019-11-25 15:00:00 19.4 14 Noroeste 24 Noroeste 0 -- -- 51
2019-11-25 14:00:00 19.6 15 Oeste 26 Oeste 0 -- -- 52
2019-11-25 13:00:00 18.5 17 Sudoeste 25 Sudoeste 0 -- -- 54
2019-11-25 12:00:00 17.4 17 Sudoeste 25 Sudoeste 0 -- -- 63
2019-11-25 11:00:00 16.5 15 Sudoeste 23 Sudoeste 0 -- -- 69
2019-11-25 10:00:00 15.8 16 Oeste 24 Oeste 0 -- -- 66
2019-11-25 09:00:00 13.6 6 Sudeste 10 Sur 0 -- -- 74
2019-11-25 08:00:00 11.4 4 Oeste 16 Sudoeste 0 -- -- 77
2019-11-25 07:00:00 11 7 Sur 23 Sur 0 -- -- 75
2019-11-25 06:00:00 12.4 14 Sudoeste 20 Sudoeste 0 -- -- 70
2019-11-25 05:00:00 11.4 11 Sudoeste 14 Oeste 0 -- -- 77
2019-11-25 04:00:00 10.3 9 Sudoeste 17 Sudoeste 0 -- -- 79
2019-11-25 03:00:00 11 10 Sudoeste 17 Sudoeste 0 -- -- 74
2019-11-25 02:00:00 9.3 11 Sudoeste 17 Sudoeste 0 -- -- 78
2019-11-25 01:00:00 10.7 13 Sudoeste 18 Sudoeste 0 -- -- 74
2019-11-25 00:00:00 12.1 12 Sudoeste 26 Oeste 0 -- -- 67
2019-11-24 23:00:00 11.2 10 Sudoeste 20 Oeste 0 -- -- 74
2019-11-24 22:00:00 12.6 14 Oeste 23 Oeste 0 -- -- 67
2019-11-24 21:00:00 11.8 11 Sudoeste 19 Oeste 0 -- -- 72
2019-11-24 20:00:00 11.4 4 Sudoeste 21 Oeste 0 -- -- 72
2019-11-24 19:00:00 11.2 9 Oeste 17 Oeste 0 -- -- 75
2019-11-24 18:00:00 11.2 5 Oeste 11 Sudoeste 0 -- -- 73
2019-11-24 17:00:00 13.9 2 Oeste 24 Oeste 0 -- -- 65
2019-11-24 16:00:00 13.8 13 Oeste 27 Oeste 0 -- -- 65
2019-11-24 15:00:00 14.8 18 Oeste 27 Oeste 0 -- -- 59
2019-11-24 14:00:00 15.2 14 Oeste 28 Oeste 0 -- -- 60
2019-11-24 13:00:00 15 14 Noroeste 27 Oeste 0 -- -- 62
2019-11-24 12:00:00 14.9 15 Noroeste 30 Noroeste 0 -- -- 60
2019-11-24 11:00:00 14.2 14 Noroeste 27 Noroeste 0 -- -- 59
2019-11-24 10:00:00 13.7 8 Oeste 27 Noroeste 0 -- -- 63
2019-11-24 09:00:00 13.5 15 Noroeste 41 Noroeste 0 -- -- 60
2019-11-24 08:00:00 13 12 Noroeste 33 Noroeste 0 -- -- 62
2019-11-24 07:00:00 13.3 9 Noroeste 42 Noroeste 0 -- -- 59
2019-11-24 06:00:00 13.3 12 Oeste 47 Noroeste 0 -- -- 62
2019-11-24 05:00:00 13.1 10 Noroeste 33 Oeste 0 -- -- 62
2019-11-24 04:00:00 13.2 12 Oeste 28 Oeste 0 -- -- 62
2019-11-24 03:00:00 12.4 2 Sur 12 Oeste 0 -- -- 65
2019-11-24 02:00:00 13 8 Oeste 22 Oeste 0 -- -- 63
2019-11-24 01:00:00 13.6 16 Oeste 36 Oeste 0 -- -- 61
2019-11-24 00:00:00 13.6 14 Oeste 39 Noroeste 0 -- -- 62
2019-11-23 23:00:00 13.6 22 Oeste 49 Oeste 0 -- -- 60
2019-11-23 22:00:00 13.8 28 Noroeste 46 Norte 0 -- -- 61
2019-11-23 21:00:00 14.1 21 Noroeste 66 Noroeste 0 -- -- 58
2019-11-23 20:00:00 14.6 27 Oeste 43 Oeste 0 -- -- 56
2019-11-23 19:00:00 13.4 16 Oeste 45 Oeste 0.2 -- -- 62
2019-11-23 18:00:00 13.6 21 Oeste 44 Oeste 0.8 -- -- 62
2019-11-23 17:00:00 13.7 27 Noroeste 50 Noroeste 0.2 -- -- 60
2019-11-23 16:00:00 13.4 20 Noroeste 42 Noroeste 0 -- -- 67
2019-11-23 15:00:00 14.1 25 Noroeste 40 Oeste 0 -- -- 65
2019-11-23 14:00:00 13.9 17 Noroeste 31 Oeste 0.2 -- -- 70
2019-11-23 13:00:00 12.6 21 Noroeste 45 Noroeste 0 -- -- 75
2019-11-23 12:00:00 15.5 22 Oeste 33 Oeste 0 -- -- 68
2019-11-23 11:00:00 14.6 23 Oeste 42 Oeste 0 -- -- 67
2019-11-23 10:00:00 15 21 Oeste 47 Sudoeste 0.2 -- -- 68
2019-11-23 09:00:00 15.2 22 Sudoeste 38 Oeste 0 -- -- 66
2019-11-23 08:00:00 13.5 17 Sudoeste 29 Sudoeste 0 -- -- 69
2019-11-23 07:00:00 13.6 17 Sudoeste 25 Sudoeste 0 -- -- 78
2019-11-23 06:00:00 13.5 11 Oeste 36 Oeste 0 -- -- 83
2019-11-23 05:00:00 14.9 19 Sudoeste 39 Sudoeste 0 -- -- 89
2019-11-23 04:00:00 15.5 23 Sudoeste 42 Sudoeste 1.2 -- -- 93
2019-11-23 03:00:00 16 27 Sudoeste 52 Sudoeste 3.8 -- -- 93
2019-11-23 02:00:00 15.8 26 Sudoeste 50 Sudoeste 1 -- -- 93
2019-11-23 01:00:00 14.8 30 Sur 58 Sur 2.6 -- -- 94
2019-11-23 00:00:00 15.1 35 Sudoeste 58 Sur 2 -- -- 94
2019-11-22 23:00:00 14.7 38 Sur 56 Sur 5 -- -- 94
2019-11-22 22:00:00 14.3 24 Sur 43 Sur 3.2 -- -- 93
2019-11-22 21:00:00 14.7 18 Sudoeste 32 Sur 2.4 -- -- 92
2019-11-22 20:00:00 15 17 Sur 28 Sur 0 -- -- 89
2019-11-22 19:00:00 14.8 19 Sur 37 Sur 0.4 -- -- 90
2019-11-22 18:00:00 15.1 18 Sur 26 Sudoeste 0.2 -- -- 90
2019-11-22 17:00:00 15.6 21 Sudoeste 36 Sudoeste 0 -- -- 87
2019-11-22 16:00:00 16 22 Sudoeste 38 Sudoeste 0 -- -- 86
2019-11-22 15:00:00 16.1 25 Sudoeste 41 Sudoeste 0 -- -- 85
2019-11-22 14:00:00 16.7 24 Sudoeste 38 Sudoeste 0 -- -- 85
2019-11-22 13:00:00 16.3 26 Sudoeste 36 Sudoeste 0 -- -- 88
2019-11-22 12:00:00 14.8 7 Oeste 12 Sudoeste 0.2 -- -- 96
2019-11-22 11:00:00 13.5 3 Noroeste 5 Noroeste 0.2 -- -- 98
2019-11-22 10:00:00 11.7 0 Calma 4 Sudeste 1 -- -- 97
2019-11-22 09:00:00 10.3 3 Norte 6 Sur 0.6 -- -- 97
2019-11-22 08:00:00 9.8 5 Sur 8 Sur 0 -- -- 97
2019-11-22 07:00:00 10 3 Noroeste 6 Noroeste 0 -- -- 97
2019-11-22 06:00:00 10.2 4 Noroeste 5 Noroeste 0.2 -- -- 96
2019-11-22 05:00:00 9.8 5 Norte 8 Noroeste 0.2 -- -- 96
2019-11-22 04:00:00 8.5 0 Calma 5 Este 0 -- -- 95
2019-11-22 03:00:00 8.6 4 Norte 5 Norte 0 -- -- 95
2019-11-22 02:00:00 8.3 0 Calma 4 Oeste 0 -- -- 94
2019-11-22 01:00:00 8.6 0 Calma 5 Oeste 0 -- -- 94
2019-11-22 00:00:00 8.4 2 Oeste 4 Noroeste 0 -- -- 93
2019-11-21 23:00:00 8.9 3 Noroeste 6 Noroeste 0 -- -- 92
2019-11-21 22:00:00 9.1 0 Calma 7 Sur 0 -- -- 90
2019-11-21 21:00:00 9.6 4 Sur 5 Oeste 0 -- -- 88
2019-11-21 20:00:00 10.8 5 Sudoeste 12 Sur 0 -- -- 84
2019-11-21 19:00:00 11.5 6 Sudoeste 10 Sudoeste 0 -- -- 80
2019-11-21 18:00:00 12 6 Sudoeste 13 Oeste 0 -- -- 76
2019-11-21 17:00:00 13.4 8 Oeste 23 Oeste 0 -- -- 68
2019-11-21 16:00:00 14.3 17 Oeste 27 Sudoeste 0 -- -- 64
2019-11-21 15:00:00 14.7 18 Oeste 30 Oeste 0 -- -- 65
2019-11-21 14:00:00 15.4 15 Sudoeste 29 Oeste 0 -- -- 66
2019-11-21 13:00:00 14.6 16 Sudoeste 33 Oeste 0 -- -- 67
2019-11-21 12:00:00 15.3 17 Sudoeste 32 Oeste 0 -- -- 72
2019-11-21 11:00:00 14.3 17 Sudoeste 26 Sudoeste 0 -- -- 75
2019-11-21 10:00:00 11.9 6 Sudoeste 9 Sudoeste 0 -- -- 95
2019-11-21 09:00:00 9.2 3 Oeste 7 Sudoeste 0 -- -- 97
2019-11-21 08:00:00 6.7 3 Sudoeste 7 Sudoeste 0 -- -- 98
2019-11-21 07:00:00 7 5 Sudoeste 5 Sudoeste 0 -- -- 98
2019-11-21 06:00:00 8.3 0 Calma 4 Noroeste 0.2 -- -- 97
2019-11-21 05:00:00 9 3 Noroeste 9 Oeste 0.4 -- -- 97
2019-11-21 04:00:00 8.2 5 Oeste 13 Sur 0.2 -- -- 97
2019-11-21 03:00:00 7.8 0 Calma 6 Noroeste 0 -- -- 97
2019-11-21 02:00:00 7.1 3 Norte 6 Sur 0 -- -- 95
2019-11-21 01:00:00 7 8 Sudoeste 13 Sudoeste 0 -- -- 97
2019-11-21 00:00:00 6.4 3 Oeste 4 Sudoeste 0 -- -- 97
2019-11-20 23:00:00 7 0 Calma 6 Noroeste 0 -- -- 95
2019-11-20 22:00:00 7.1 3 Sudoeste 5 Sudoeste 0.2 -- -- 93
2019-11-20 21:00:00 9.1 0 Calma 9 Oeste 0 -- -- 92
2019-11-20 20:00:00 9.5 2 Oeste 7 Sur 0 -- -- 90
2019-11-20 19:00:00 9.3 0 Calma 8 Sur 0 -- -- 87
2019-11-20 18:00:00 10.9 0 Calma 8 Norte 0 -- -- 81
2019-11-20 17:00:00 12.3 6 Noroeste 8 Noroeste 0 -- -- 76
2019-11-20 16:00:00 13.2 3 Sudoeste 11 Sur 0 -- -- 73
2019-11-20 15:00:00 13.8 0 Calma 5 Oeste 0 -- -- 64
2019-11-20 14:00:00 13.6 3 Oeste 4 Nordeste 0 -- -- 63
2019-11-20 13:00:00 13.6 0 Calma 5 Nordeste 0 -- -- 64
2019-11-20 12:00:00 13.3 2 Sudeste 5 Este 0 -- -- 65
2019-11-20 11:00:00 10.9 0 Calma 3 Sudeste 0 -- -- 90
2019-11-20 10:00:00 7.9 0 Calma 3 Este 0 -- -- 95
2019-11-20 09:00:00 5.5 2 Sudoeste 5 Noroeste 0 -- -- 96
2019-11-20 08:00:00 2 0 Calma 6 Noroeste 0 -- -- 96
2019-11-20 07:00:00 1.6 4 Sudoeste 6 Sur 0 -- -- 96
2019-11-20 06:00:00 1.5 0 Calma 4 Norte 0 -- -- 95
2019-11-20 05:00:00 1.5 2 Sudoeste 4 Sudoeste 0 -- -- 95
2019-11-20 04:00:00 1.9 2 Oeste 6 Sudoeste 0 -- -- 94
2019-11-20 03:00:00 2.1 4 Sudoeste 6 Oeste 0 -- -- 95
2019-11-20 02:00:00 2.2 4 Oeste 5 Oeste 0 -- -- 93
2019-11-20 01:00:00 2.6 2 Oeste 5 Sudoeste 0 -- -- 93
2019-11-20 00:00:00 3.4 0 Calma 6 Sudoeste 0 -- -- 93
2019-11-19 23:00:00 4 0 Calma 6 Noroeste 0 -- -- 91
2019-11-19 22:00:00 3.5 4 Oeste 6 Sudoeste 0 -- -- 91
2019-11-19 21:00:00 4.5 2 Noroeste -- -- 0 -- -- 88
2019-11-19 20:00:00 5.1 4 Oeste 5 Oeste 0 -- -- 84
2019-11-19 19:00:00 7 0 Calma 9 Oeste 0 -- -- 74
2019-11-19 18:00:00 10.1 6 Oeste 17 Oeste 0 -- -- 63
2019-11-19 17:00:00 12.9 11 Oeste 18 Oeste 0 -- -- 51
2019-11-19 16:00:00 14 12 Oeste 22 Oeste 0 -- -- 50
2019-11-19 15:00:00 14.1 17 Oeste 27 Oeste 0 -- -- 54
2019-11-19 14:00:00 13.5 10 Oeste 26 Oeste 0 -- -- 58
2019-11-19 13:00:00 13.9 16 Oeste 28 Oeste 0 -- -- 58
2019-11-19 12:00:00 13.5 17 Oeste 30 Oeste 0 -- -- 64
2019-11-19 11:00:00 13 14 Sudoeste 22 Sudoeste 0 -- -- 71
2019-11-19 10:00:00 10.7 3 Sur 8 Sudoeste 0 -- -- 91
2019-11-19 09:00:00 7.3 0 Calma 8 Sudoeste 0 -- -- 95
2019-11-19 08:00:00 3.8 6 Sudoeste 10 Sudoeste 0 -- -- 96
2019-11-19 07:00:00 3.3 3 Oeste 6 Sudoeste 0 -- -- 95
2019-11-19 06:00:00 4.2 3 Oeste 9 Noroeste 0 -- -- 95
2019-11-19 05:00:00 5 4 Oeste 9 Sur 0 -- -- 95
2019-11-19 04:00:00 5.4 4 Noroeste 8 Nordeste 0 -- -- 94
2019-11-19 03:00:00 6.3 5 Noroeste 8 Noroeste 0 -- -- 92
2019-11-19 02:00:00 7.6 5 Noroeste 8 Noroeste 0 -- -- 89
2019-11-19 01:00:00 8.9 0 Calma 14 Norte 0.2 -- -- 83
2019-11-19 00:00:00 9.9 8 Norte 20 Nordeste 0 -- -- 78
2019-11-18 23:00:00 9.8 6 Norte 9 Norte 0 -- -- 76
2019-11-18 22:00:00 9.7 4 Nordeste 14 Nordeste 0 -- -- 74
2019-11-18 21:00:00 10 4 Norte 21 Nordeste 0 -- -- 72
2019-11-18 20:00:00 10.1 12 Nordeste 25 Nordeste 0 -- -- 71
2019-11-18 19:00:00 10.5 13 Nordeste 27 Nordeste 0 -- -- 74
2019-11-18 18:00:00 10.8 13 Norte 31 Nordeste 0 -- -- 73
2019-11-18 17:00:00 11.5 16 Nordeste 31 Norte 0 -- -- 71
2019-11-18 16:00:00 12.5 17 Nordeste 28 Nordeste 0 -- -- 74
2019-11-18 15:00:00 12.5 21 Nordeste 32 Nordeste 0 -- -- 80
2019-11-18 14:00:00 12.2 14 Nordeste 37 Nordeste 0.2 -- -- 85
2019-11-18 13:00:00 14.5 8 Este 15 Este 0 -- -- 75
2019-11-18 12:00:00 13.4 4 Norte 10 Nordeste 0 -- -- 76
2019-11-18 11:00:00 13.3 3 Noroeste 13 Nordeste 0 -- -- 75
2019-11-18 10:00:00 11.2 4 Nordeste 12 Este 0 -- -- 94
2019-11-18 09:00:00 10.1 6 Este 12 Este 0 -- -- 96
2019-11-18 08:00:00 9.9 4 Norte 9 Noroeste 0 -- -- 96
2019-11-18 07:00:00 10 3 Sudeste 11 Nordeste 0 -- -- 95
2019-11-18 06:00:00 10.4 5 Oeste 10 Oeste 0.2 -- -- 95
2019-11-18 05:00:00 10.1 3 Noroeste 8 Sudoeste 0 -- -- 94
2019-11-18 04:00:00 10.5 5 Oeste 15 Sudoeste 0.4 -- -- 93
2019-11-18 03:00:00 10.8 9 Sudoeste 15 Sudoeste 1 -- -- 92
2019-11-18 02:00:00 11.1 8 Sudoeste 22 Sudoeste 0.2 -- -- 87
2019-11-18 01:00:00 11.1 8 Oeste 13 Oeste 0 -- -- 86
2019-11-18 00:00:00 9.2 6 Sudoeste 8 Sudoeste 0 -- -- 89
2019-11-17 23:00:00 8.9 0 Calma 5 Oeste 0 -- -- 85
2019-11-17 22:00:00 9.9 7 Sudoeste 9 Sudoeste 0 -- -- 81
2019-11-17 21:00:00 9.5 6 Oeste 9 Oeste 0 -- -- 81
2019-11-17 20:00:00 9.8 6 Oeste 10 Sudoeste 0 -- -- 79
2019-11-17 19:00:00 10.5 8 Oeste 12 Oeste 0 -- -- 76
2019-11-17 18:00:00 11.6 10 Sudoeste 23 Sudoeste 0 -- -- 69
2019-11-17 17:00:00 13.5 15 Sudoeste 32 Sudoeste 0 -- -- 61
2019-11-17 16:00:00 14.2 14 Oeste 28 Oeste 0 -- -- 57
2019-11-17 15:00:00 13.6 18 Oeste 35 Oeste 0 -- -- 59
2019-11-17 14:00:00 13.5 23 Oeste 35 Oeste 0 -- -- 61
2019-11-17 13:00:00 14.2 21 Oeste 33 Oeste 0 -- -- 55
2019-11-17 12:00:00 14.1 21 Oeste 33 Oeste 0 -- -- 52
2019-11-17 11:00:00 14.2 20 Oeste 33 Oeste 0 -- -- 53
2019-11-17 10:00:00 13.6 17 Oeste 31 Oeste 0 -- -- 55
2019-11-17 09:00:00 12 15 Sudoeste 26 Sudoeste 0 -- -- 62
2019-11-17 08:00:00 9.9 3 Oeste 19 Oeste 0 -- -- 64
2019-11-17 07:00:00 9.6 8 Sudoeste 26 Noroeste 0 -- -- 65
2019-11-17 06:00:00 11.8 17 Noroeste 28 Noroeste 0 -- -- 55
2019-11-17 05:00:00 11.7 21 Noroeste 51 Noroeste 0 -- -- 58
2019-11-17 04:00:00 12 32 Noroeste 62 Noroeste 0 -- -- 56
2019-11-17 03:00:00 12.1 16 Noroeste 32 Oeste 0 -- -- 57
2019-11-17 02:00:00 12.5 21 Noroeste 42 Noroeste 0 -- -- 54
2019-11-17 01:00:00 12.5 23 Noroeste 41 Oeste 0.2 -- -- 58
2019-11-17 00:00:00 12.4 18 Oeste 39 Noroeste 0 -- -- 57
2019-11-16 23:00:00 11.7 18 Noroeste 33 Noroeste 0 -- -- 60
2019-11-16 22:00:00 10.2 3 Noroeste 29 Noroeste 0 -- -- 68
2019-11-16 21:00:00 7.7 3 Sudoeste 10 Oeste 0 -- -- 93
2019-11-16 20:00:00 8.7 4 Oeste 18 Oeste 0.8 -- -- 89
2019-11-16 19:00:00 9.8 2 Sudeste 16 Noroeste 0 -- -- 79
2019-11-16 18:00:00 9.4 0 Calma 11 Norte 0 -- -- 80
2019-11-16 17:00:00 11.3 6 Norte 20 Nordeste 0 -- -- 72
2019-11-16 16:00:00 11.7 9 Norte 14 Norte 0 -- -- 74
2019-11-16 15:00:00 11.3 7 Nordeste 22 Nordeste 0.2 -- -- 78
2019-11-16 14:00:00 10.4 8 Noroeste 24 Nordeste 1 -- -- 77
2019-11-16 13:00:00 13.2 6 Norte 16 Noroeste 0 -- -- 63
2019-11-16 12:00:00 12.3 6 Noroeste 11 Oeste 0 -- -- 66
2019-11-16 11:00:00 10.6 0 Calma 8 Noroeste 0 -- -- 81
2019-11-16 10:00:00 8.2 4 Oeste 7 Noroeste 0 -- -- 91
2019-11-16 09:00:00 6 4 Noroeste 6 Noroeste 0 -- -- 94
2019-11-16 08:00:00 4.9 2 Norte 6 Noroeste 0 -- -- 93
2019-11-16 07:00:00 5.2 3 Nordeste 7 Sudeste 0 -- -- 92
2019-11-16 06:00:00 6 7 Sudeste 10 Noroeste 0 -- -- 90
2019-11-16 05:00:00 6.8 4 Noroeste 14 Oeste 0 -- -- 88
2019-11-16 04:00:00 7.5 5 Sudeste 20 Norte 0 -- -- 83
2019-11-16 03:00:00 7.8 14 Norte 39 Noroeste 0.2 -- -- 83
2019-11-16 02:00:00 6.9 9 Oeste 18 Oeste 0 -- -- 96
2019-11-16 01:00:00 4.4 3 Noroeste 8 Noroeste 0 -- -- 91
2019-11-16 00:00:00 4.3 3 Noroeste 14 Noroeste 0 -- -- 90